Time;durP1;ratioP1;P1;durP2;ratioP2;P2;SDS_P1;SDS_P2;PMS_P1;PMS_P2;Temp;Humidity;BMP_temperature;BMP_pressure;BME280_temperature;BME280_humidity;BME280_pressure;Samples;Min_cycle;Max_cycle;Signal;HPM_P1;HPM_P2
2022/01/06 00:01:52;;;;;;;20.08;5.18;;;5.10;84.90;;;;;;5114303;27;20039;-71
2022/01/06 00:04:18;;;;;;;33.65;5.18;;;5.10;85.40;;;;;;5113293;27;20039;-73
2022/01/06 00:06:44;;;;;;;32.95;5.13;;;5.10;85.40;;;;;;5127332;27;20044;-73
2022/01/06 00:09:14;;;;;;;39.42;7.30;;;5.10;85.50;;;;;;5122640;27;21391;-72
2022/01/06 00:11:40;;;;;;;28.20;5.32;;;5.20;85.60;;;;;;5112120;27;20199;-72
2022/01/06 00:14:19;;;;;;;30.10;4.45;;;5.20;85.70;;;;;;5122039;27;20130;-72
2022/01/06 00:24:59;;;;;;;29.00;5.47;;;5.10;85.20;;;;;;5105964;27;20062;-71
2022/01/06 00:27:25;;;;;;;21.90;3.63;;;5.10;85.10;;;;;;5130972;27;20491;-71
2022/01/06 00:29:50;;;;;;;29.02;4.63;;;5.10;85.10;;;;;;5130654;27;20050;-71
2022/01/06 00:32:16;;;;;;;27.80;4.65;;;5.00;84.50;;;;;;5131863;27;20122;-71
2022/01/06 00:34:42;;;;;;;18.83;3.45;;;4.90;84.40;;;;;;5131649;27;20554;-72
2022/01/06 00:37:08;;;;;;;17.45;4.65;;;4.90;84.00;;;;;;5131490;27;20415;-71
2022/01/06 00:39:33;;;;;;;18.65;3.30;;;5.00;84.10;;;;;;5130966;27;20052;-72
2022/01/06 00:42:00;;;;;;;23.38;5.50;;;5.00;84.20;;;;;;5131440;27;20035;-71
2022/01/06 00:44:26;;;;;;;17.00;4.45;;;4.90;84.30;;;;;;5131138;27;20046;-71
2022/01/06 00:46:53;;;;;;;29.60;5.55;;;4.90;84.70;;;;;;5113346;27;20042;-71
2022/01/06 00:49:22;;;;;;;22.50;4.00;;;4.90;84.70;;;;;;5110103;27;20574;-71
2022/01/06 00:51:47;;;;;;;18.77;3.65;;;4.80;85.10;;;;;;5123099;27;20099;-71
2022/01/06 00:54:14;;;;;;;18.60;3.13;;;4.80;85.20;;;;;;5130552;27;20039;-71
2022/01/06 00:56:40;;;;;;;21.75;3.50;;;4.80;85.20;;;;;;5113001;27;20039;-71
2022/01/06 00:59:05;;;;;;;24.13;3.58;;;4.80;85.30;;;;;;5112416;27;20384;-71
2022/01/06 01:01:32;;;;;;;23.85;3.47;;;4.70;85.50;;;;;;5112407;27;20831;-71
2022/01/06 01:03:58;;;;;;;22.15;3.05;;;4.70;85.60;;;;;;5111573;27;20112;-71
2022/01/06 01:06:24;;;;;;;21.33;5.05;;;4.70;85.40;;;;;;5128746;27;20849;-71
2022/01/06 01:08:49;;;;;;;18.88;5.07;;;4.60;85.50;;;;;;5115829;27;20050;-71
2022/01/06 01:11:15;;;;;;;16.40;3.00;;;4.60;85.40;;;;;;5129444;27;20566;-71
2022/01/06 01:13:57;;;;;;;22.38;3.63;;;4.60;84.90;;;;;;5111840;27;20047;-72
2022/01/06 01:16:31;;;;;;;20.17;3.70;;;4.60;84.70;;;;;;5130070;27;20508;-72
2022/01/06 01:18:59;;;;;;;25.05;2.97;;;4.60;84.60;;;;;;5130123;27;20509;-72
2022/01/06 01:21:27;;;;;;;16.13;3.88;;;4.60;84.60;;;;;;5130541;27;20132;-72
2022/01/06 01:23:55;;;;;;;17.42;3.05;;;4.60;84.30;;;;;;5130305;27;20728;-72
2022/01/06 01:26:21;;;;;;;15.77;2.75;;;4.60;84.00;;;;;;5112538;27;20043;-72
2022/01/06 01:28:49;;;;;;;21.98;3.03;;;4.60;83.40;;;;;;5128982;27;20037;-72
2022/01/06 01:33:45;;;;;;;13.05;2.50;;;4.60;82.70;;;;;;5130575;27;20523;-72
2022/01/06 01:36:14;;;;;;;20.98;3.03;;;4.60;82.70;;;;;;5130905;27;20252;-72
2022/01/06 01:38:40;;;;;;;11.07;2.28;;;4.60;82.40;;;;;;5129557;27;20124;-72
2022/01/06 01:41:07;;;;;;;20.98;2.60;;;4.50;82.30;;;;;;5130679;27;20043;-72
2022/01/06 01:43:33;;;;;;;17.90;2.45;;;4.50;82.10;;;;;;5129763;27;20444;-72
2022/01/06 01:46:08;;;;;;;21.13;4.40;;;4.50;82.00;;;;;;5094399;27;20075;-72
2022/01/06 01:48:36;;;;;;;21.05;3.60;;;4.50;81.50;;;;;;5129573;27;20063;-72
2022/01/06 01:51:02;;;;;;;23.75;3.47;;;4.50;81.50;;;;;;5112400;27;20926;-71
2022/01/06 01:53:29;;;;;;;22.52;3.45;;;4.50;81.50;;;;;;5130044;27;20043;-72
2022/01/06 01:55:55;;;;;;;13.30;2.53;;;4.50;81.70;;;;;;5111759;27;20035;-72
2022/01/06 01:58:21;;;;;;;16.15;3.33;;;4.60;81.40;;;;;;5129523;27;20114;-72
2022/01/06 02:00:47;;;;;;;20.77;3.35;;;4.50;81.80;;;;;;5129493;27;20122;-72
2022/01/06 02:03:13;;;;;;;28.15;6.95;;;4.60;81.60;;;;;;5129222;27;20055;-71
2022/01/06 02:05:39;;;;;;;12.43;2.97;;;4.50;81.50;;;;;;5129976;27;20043;-72
2022/01/06 02:08:05;;;;;;;16.42;2.90;;;4.50;81.30;;;;;;5129986;27;20484;-72
2022/01/06 02:10:31;;;;;;;14.23;3.33;;;4.60;81.40;;;;;;5111058;27;20043;-71
2022/01/06 02:13:00;;;;;;;24.00;3.80;;;4.60;81.30;;;;;;5111741;27;20568;-71
2022/01/06 02:15:26;;;;;;;27.00;4.50;;;4.60;81.30;;;;;;5117145;27;20569;-72
2022/01/06 02:17:52;;;;;;;23.00;4.53;;;4.60;81.10;;;;;;5136806;27;20065;-71
2022/01/06 02:20:20;;;;;;;20.75;4.50;;;4.60;81.40;;;;;;5136707;27;20475;-72
2022/01/06 02:22:47;;;;;;;24.63;5.97;;;4.60;81.00;;;;;;5107169;28;20052;-71
2022/01/06 02:25:14;;;;;;;13.75;2.65;;;4.50;81.00;;;;;;5114909;27;20046;-71
2022/01/06 02:27:40;;;;;;;20.83;3.72;;;4.50;81.60;;;;;;5136629;27;20058;-71
2022/01/06 02:30:08;;;;;;;14.73;2.55;;;4.40;81.40;;;;;;5136123;27;20065;-71
2022/01/06 02:32:34;;;;;;;17.33;2.92;;;4.40;81.00;;;;;;5117824;27;20054;-71
2022/01/06 02:35:08;;;;;;;19.98;4.10;;;4.30;81.30;;;;;;5118256;27;20047;-71
2022/01/06 02:37:34;;;;;;;15.70;2.70;;;4.30;81.60;;;;;;5136224;27;20039;-71
2022/01/06 02:39:59;;;;;;;7.07;1.95;;;4.20;81.60;;;;;;5135567;27;20092;-71
2022/01/06 02:42:26;;;;;;;15.13;2.78;;;4.20;81.20;;;;;;5136309;27;20038;-71
2022/01/06 02:44:52;;;;;;;16.27;3.25;;;4.10;81.50;;;;;;5136297;27;20061;-72
2022/01/06 02:47:17;;;;;;;25.15;3.65;;;4.10;81.30;;;;;;5136223;27;20035;-71
2022/01/06 02:49:43;;;;;;;15.50;2.90;;;4.10;81.40;;;;;;5136151;27;20035;-71
2022/01/06 02:52:08;;;;;;;14.85;2.42;;;4.10;81.50;;;;;;5132660;27;20039;-72
2022/01/06 02:54:34;;;;;;;17.98;3.00;;;4.10;81.70;;;;;;5126763;27;20043;-71
2022/01/06 02:57:02;;;;;;;17.75;2.30;;;4.10;81.70;;;;;;5118387;27;20035;-71
2022/01/06 02:59:27;;;;;;;15.73;3.50;;;4.00;81.80;;;;;;5125439;27;20107;-72
2022/01/06 03:01:53;;;;;;;14.13;2.30;;;3.90;81.70;;;;;;5135720;27;20122;-71
2022/01/06 03:04:20;;;;;;;15.00;3.50;;;4.00;81.80;;;;;;5135951;27;20054;-72
2022/01/06 03:06:46;;;;;;;14.88;2.58;;;3.90;81.70;;;;;;5136729;27;20491;-71
2022/01/06 03:09:11;;;;;;;11.15;2.33;;;3.90;81.90;;;;;;5136090;27;20035;-71
2022/01/06 03:11:42;;;;;;;17.55;2.60;;;3.80;81.30;;;;;;5136236;27;20491;-71
2022/01/06 03:14:08;;;;;;;19.15;2.80;;;3.70;81.50;;;;;;5133726;27;20094;-71
2022/01/06 03:16:33;;;;;;;10.35;2.47;;;3.70;81.90;;;;;;5115738;28;20085;-72
2022/01/06 03:19:02;;;;;;;24.83;5.75;;;3.70;82.20;;;;;;5120609;27;20483;-72
2022/01/06 03:21:28;;;;;;;12.13;2.55;;;3.70;82.30;;;;;;5136349;27;20487;-72
2022/01/06 03:23:54;;;;;;;18.65;2.47;;;3.80;82.30;;;;;;5124871;27;20047;-71
2022/01/06 03:26:20;;;;;;;14.30;2.92;;;3.80;82.30;;;;;;5132253;27;20108;-71
2022/01/06 03:28:45;;;;;;;9.98;2.97;;;3.80;82.30;;;;;;5132712;27;20453;-71
2022/01/06 03:31:11;;;;;;;10.75;1.77;;;3.80;82.30;;;;;;5131919;27;20039;-72
2022/01/06 03:33:36;;;;;;;18.67;2.53;;;3.80;82.30;;;;;;5133330;27;20092;-72
2022/01/06 03:36:02;;;;;;;16.85;4.85;;;3.80;82.20;;;;;;5132885;27;20063;-72
2022/01/06 03:38:28;;;;;;;10.07;2.25;;;3.70;81.50;;;;;;5114035;27;20046;-71
2022/01/06 03:40:53;;;;;;;19.42;4.28;;;3.70;81.90;;;;;;5132016;27;20122;-71
2022/01/06 03:43:19;;;;;;;13.02;2.65;;;3.70;81.80;;;;;;5132778;27;20047;-71
2022/01/06 03:45:45;;;;;;;16.20;3.00;;;3.60;81.50;;;;;;5131517;27;20054;-71
2022/01/06 03:48:10;;;;;;;16.00;2.00;;;3.60;81.60;;;;;;5078925;28;20044;-71
2022/01/06 03:50:36;;;;;;;16.35;2.63;;;3.60;81.90;;;;;;5122522;27;20046;-71
2022/01/06 03:53:02;;;;;;;23.58;2.53;;;3.60;81.90;;;;;;5115342;27;20070;-71
2022/01/06 03:55:27;;;;;;;14.27;2.63;;;3.70;81.90;;;;;;5131734;27;20096;-71
2022/01/06 03:57:53;;;;;;;14.48;2.10;;;3.70;82.10;;;;;;5131082;27;20125;-71
2022/01/06 04:00:20;;;;;;;12.48;3.30;;;3.70;82.10;;;;;;5132474;27;20495;-71
2022/01/06 04:02:47;;;;;;;13.48;2.67;;;3.70;82.20;;;;;;5131330;27;20047;-71
2022/01/06 04:05:13;;;;;;;13.10;2.38;;;3.70;82.40;;;;;;5113392;27;20047;-71
2022/01/06 04:07:40;;;;;;;14.38;2.45;;;3.70;82.40;;;;;;5103916;27;20043;-72
2022/01/06 04:10:08;;;;;;;9.23;2.78;;;3.60;81.80;;;;;;5132227;27;20035;-72
2022/01/06 04:12:35;;;;;;;15.15;2.65;;;3.60;81.60;;;;;;5131985;27;20051;-72
2022/01/06 04:15:02;;;;;;;14.07;2.58;;;3.60;82.00;;;;;;5132074;27;20111;-72
2022/01/06 04:17:28;;;;;;;20.25;4.63;;;3.40;81.60;;;;;;5118664;27;20463;-72
2022/01/06 04:19:53;;;;;;;13.80;2.00;;;3.40;81.80;;;;;;5111819;27;20078;-71
2022/01/06 04:22:19;;;;;;;16.48;3.03;;;3.40;81.70;;;;;;5132099;27;20047;-71
2022/01/06 04:24:48;;;;;;;12.80;1.67;;;3.30;81.40;;;;;;5127364;27;20079;-71
2022/01/06 04:27:13;;;;;;;10.88;2.80;;;3.30;81.60;;;;;;5132451;27;20035;-71
2022/01/06 04:29:40;;;;;;;12.55;2.40;;;3.30;81.90;;;;;;5129572;27;20051;-72
2022/01/06 04:32:06;;;;;;;13.70;3.95;;;3.30;82.00;;;;;;5132000;27;20054;-71
2022/01/06 04:34:31;;;;;;;11.65;1.92;;;3.30;81.80;;;;;;5131407;27;20054;-71
2022/01/06 04:36:59;;;;;;;9.77;1.85;;;3.30;81.80;;;;;;5131332;27;20495;-71
2022/01/06 04:39:25;;;;;;;12.68;2.10;;;3.30;81.50;;;;;;5112483;27;20411;-71
2022/01/06 04:41:50;;;;;;;11.93;2.63;;;3.20;81.90;;;;;;5095997;27;20043;-71
2022/01/06 04:44:16;;;;;;;13.30;1.67;;;3.20;81.90;;;;;;5113200;27;20110;-72
2022/01/06 04:46:42;;;;;;;11.85;2.30;;;3.20;82.10;;;;;;5131460;27;20055;-71
2022/01/06 04:49:08;;;;;;;12.73;2.30;;;3.20;82.20;;;;;;5130253;27;20041;-71
2022/01/06 04:51:33;;;;;;;16.80;2.78;;;3.10;82.20;;;;;;5112307;27;20092;-71
2022/01/06 04:53:59;;;;;;;16.60;3.03;;;3.10;82.20;;;;;;5130627;27;20036;-72
2022/01/06 04:56:25;;;;;;;11.23;3.25;;;3.00;81.80;;;;;;5130528;27;20039;-71
2022/01/06 04:58:50;;;;;;;7.20;1.73;;;3.10;82.20;;;;;;5130982;27;20031;-71
2022/01/06 05:01:16;;;;;;;22.65;2.95;;;3.00;82.30;;;;;;5127482;27;20453;-71
2022/01/06 05:03:42;;;;;;;12.85;2.20;;;3.00;82.40;;;;;;5130491;27;20427;-71
2022/01/06 05:06:08;;;;;;;15.48;3.33;;;3.00;82.20;;;;;;5130994;27;20051;-72
2022/01/06 05:08:33;;;;;;;12.23;2.03;;;2.90;82.00;;;;;;5129598;27;20043;-71
2022/01/06 05:10:59;;;;;;;10.82;2.70;;;2.90;82.10;;;;;;5111557;27;20438;-71
2022/01/06 05:13:25;;;;;;;7.32;2.03;;;2.90;82.40;;;;;;5122264;27;20051;-71
2022/01/06 05:15:50;;;;;;;18.45;2.25;;;2.90;82.60;;;;;;5130737;27;20496;-71
2022/01/06 05:18:16;;;;;;;10.77;2.00;;;3.00;82.60;;;;;;5130761;27;20117;-72
2022/01/06 05:20:43;;;;;;;14.13;2.67;;;3.00;82.60;;;;;;5112256;27;20099;-71
2022/01/06 05:23:11;;;;;;;15.73;2.20;;;3.00;82.60;;;;;;5129815;27;20137;-71
2022/01/06 05:25:37;;;;;;;9.57;1.85;;;3.00;82.60;;;;;;5111425;27;20058;-71
2022/01/06 05:28:03;;;;;;;8.70;2.10;;;3.00;82.60;;;;;;5111902;27;20492;-71
2022/01/06 05:30:28;;;;;;;13.18;3.50;;;2.90;82.50;;;;;;5111342;27;20043;-71
2022/01/06 05:32:54;;;;;;;10.88;2.75;;;2.90;82.60;;;;;;5130048;27;20054;-71
2022/01/06 05:35:20;;;;;;;9.05;1.98;;;2.90;82.70;;;;;;5126907;27;20032;-71
2022/01/06 05:37:46;;;;;;;13.68;2.33;;;2.90;82.70;;;;;;5129724;27;20047;-71
2022/01/06 05:40:13;;;;;;;11.35;2.55;;;2.90;82.60;;;;;;5111853;27;20112;-71
2022/01/06 05:42:38;;;;;;;14.30;3.15;;;2.90;82.60;;;;;;5094876;27;20054;-71
2022/01/06 05:45:05;;;;;;;14.23;2.30;;;2.90;82.30;;;;;;5111199;27;20043;-71
2022/01/06 05:47:31;;;;;;;17.63;2.50;;;2.80;82.40;;;;;;5130654;27;20045;-71
2022/01/06 05:49:57;;;;;;;13.13;2.40;;;2.60;82.70;;;;;;5110195;27;20398;-71
2022/01/06 05:52:22;;;;;;;15.30;2.97;;;2.60;82.90;;;;;;5129351;27;20468;-71
2022/01/06 05:54:48;;;;;;;15.38;2.28;;;2.60;83.00;;;;;;5129482;27;20126;-71
2022/01/06 05:57:15;;;;;;;12.55;2.45;;;2.60;83.00;;;;;;5111550;27;20072;-71
2022/01/06 05:59:41;;;;;;;12.65;4.65;;;2.60;83.10;;;;;;5129892;27;20495;-71
2022/01/06 06:02:07;;;;;;;15.30;2.28;;;2.60;83.20;;;;;;5129182;27;20035;-72
2022/01/06 06:04:33;;;;;;;19.77;4.03;;;2.60;83.30;;;;;;5121151;27;20047;-71
2022/01/06 06:06:59;;;;;;;13.98;3.00;;;2.60;83.40;;;;;;5114988;27;20142;-71
2022/01/06 06:09:24;;;;;;;19.90;3.40;;;2.50;83.70;;;;;;5129099;27;20471;-71
2022/01/06 06:11:50;;;;;;;17.02;2.50;;;2.60;83.70;;;;;;5129513;27;20547;-71
2022/01/06 06:14:18;;;;;;;15.18;3.47;;;2.60;83.70;;;;;;5130247;28;20043;-71
2022/01/06 06:16:44;;;;;;;13.85;2.90;;;2.70;83.60;;;;;;5110458;28;20042;-71
2022/01/06 06:19:10;;;;;;;16.85;2.55;;;2.70;83.50;;;;;;5129783;27;20035;-71
2022/01/06 06:21:35;;;;;;;15.52;3.13;;;2.70;83.50;;;;;;5128931;27;20073;-71
2022/01/06 06:24:01;;;;;;;11.05;2.55;;;2.70;83.50;;;;;;5130235;28;20133;-72
2022/01/06 06:26:27;;;;;;;19.20;3.83;;;2.80;83.40;;;;;;5129341;27;20043;-72
2022/01/06 06:28:52;;;;;;;25.20;4.90;;;2.70;83.40;;;;;;5130103;27;20062;-71
2022/01/06 06:31:18;;;;;;;16.70;2.85;;;2.80;83.40;;;;;;5124610;27;20121;-71
2022/01/06 06:33:44;;;;;;;16.17;2.88;;;2.70;83.40;;;;;;5111623;28;20055;-71
2022/01/06 06:36:10;;;;;;;21.52;3.88;;;2.70;83.40;;;;;;5129455;27;20522;-71
2022/01/06 06:38:35;;;;;;;17.17;3.28;;;2.70;83.40;;;;;;5111196;28;20051;-71
2022/01/06 06:41:01;;;;;;;19.48;4.18;;;2.70;83.40;;;;;;5128565;28;20445;-71
2022/01/06 06:43:27;;;;;;;15.73;2.90;;;2.70;83.40;;;;;;5128737;28;20046;-71
2022/01/06 06:45:52;;;;;;;24.05;6.15;;;2.70;83.40;;;;;;5111156;27;20049;-71
2022/01/06 06:48:18;;;;;;;17.40;2.42;;;2.70;83.40;;;;;;5128756;27;20116;-71
2022/01/06 06:50:43;;;;;;;10.82;2.22;;;2.70;83.50;;;;;;5110323;28;20697;-71
2022/01/06 06:53:09;;;;;;;20.35;2.97;;;2.70;83.40;;;;;;5129136;27;20039;-71
2022/01/06 06:55:35;;;;;;;17.52;3.63;;;2.60;83.30;;;;;;5111405;28;20046;-72
2022/01/06 06:58:02;;;;;;;22.92;4.28;;;2.60;83.40;;;;;;5129760;27;20043;-72
2022/01/06 07:00:28;;;;;;;16.92;3.90;;;2.60;83.40;;;;;;5110944;27;20503;-71
2022/01/06 07:02:54;;;;;;;11.73;2.80;;;2.60;83.20;;;;;;5126438;27;20074;-73
2022/01/06 07:05:20;;;;;;;20.92;3.17;;;2.50;83.20;;;;;;5131152;27;20090;-72
2022/01/06 07:07:46;;;;;;;18.10;3.03;;;2.60;83.60;;;;;;5114326;27;20130;-71
2022/01/06 07:10:13;;;;;;;17.27;3.08;;;2.50;83.50;;;;;;5133475;27;20043;-72
2022/01/06 07:12:43;;;;;;;19.95;3.10;;;2.50;83.80;;;;;;5133256;27;20057;-71
2022/01/06 07:15:11;;;;;;;17.27;2.50;;;2.50;83.90;;;;;;5132603;27;20070;-71
2022/01/06 07:17:37;;;;;;;27.13;6.13;;;2.50;84.00;;;;;;5114569;27;20047;-71
2022/01/06 07:20:03;;;;;;;16.95;3.38;;;2.50;84.00;;;;;;5133135;27;20066;-71
2022/01/06 07:22:29;;;;;;;18.52;2.95;;;2.50;84.20;;;;;;5114444;27;20092;-71
2022/01/06 07:24:55;;;;;;;14.73;3.58;;;2.60;84.20;;;;;;5132643;27;20066;-71
2022/01/06 07:27:20;;;;;;;17.77;3.05;;;2.60;84.10;;;;;;5132836;27;20043;-71
2022/01/06 07:29:46;;;;;;;16.20;3.40;;;2.60;84.10;;;;;;5132655;27;20445;-71
2022/01/06 07:32:12;;;;;;;27.48;3.35;;;2.70;84.20;;;;;;5133079;27;20522;-71
2022/01/06 07:34:37;;;;;;;17.15;3.35;;;2.60;84.20;;;;;;5125373;27;20083;-71
2022/01/06 07:37:04;;;;;;;16.58;3.17;;;2.70;84.20;;;;;;5129371;27;20496;-71
2022/01/06 07:39:29;;;;;;;17.23;3.22;;;2.70;84.10;;;;;;5108982;27;20137;-71
2022/01/06 07:41:55;;;;;;;24.83;3.50;;;2.70;84.30;;;;;;5132567;27;20129;-71
2022/01/06 07:44:21;;;;;;;15.63;3.55;;;2.70;84.30;;;;;;5131924;27;20043;-71
2022/01/06 07:46:47;;;;;;;14.13;2.95;;;2.70;84.30;;;;;;5127588;27;20039;-72
2022/01/06 07:49:13;;;;;;;21.75;3.72;;;2.80;84.30;;;;;;5130952;27;20075;-71
2022/01/06 07:51:39;;;;;;;15.23;3.08;;;2.90;84.20;;;;;;5131029;27;20085;-72
2022/01/06 07:54:05;;;;;;;27.27;4.35;;;2.90;84.20;;;;;;5132673;27;20510;-72
2022/01/06 07:56:31;;;;;;;21.58;3.95;;;2.90;84.30;;;;;;5106184;28;20066;-71
2022/01/06 07:58:56;;;;;;;22.75;4.05;;;2.90;84.30;;;;;;5128699;27;20046;-72
2022/01/06 08:01:22;;;;;;;19.52;3.75;;;2.90;84.40;;;;;;5094617;27;20051;-72
2022/01/06 08:03:48;;;;;;;20.90;3.90;;;2.90;84.50;;;;;;5107262;27;20050;-71
2022/01/06 08:06:15;;;;;;;28.55;4.18;;;2.90;84.60;;;;;;5130569;27;20043;-71
2022/01/06 08:08:42;;;;;;;20.90;3.30;;;2.90;84.50;;;;;;5128310;27;21087;-71
2022/01/06 08:11:09;;;;;;;22.70;5.55;;;2.90;84.50;;;;;;5130948;27;20047;-71
2022/01/06 08:13:34;;;;;;;24.52;4.00;;;3.00;84.60;;;;;;5107933;27;20480;-72
2022/01/06 08:16:00;;;;;;;16.33;4.28;;;3.00;84.50;;;;;;5131997;27;20042;-72
2022/01/06 08:18:26;;;;;;;15.48;3.00;;;3.00;84.50;;;;;;5130024;27;20047;-71
2022/01/06 08:20:52;;;;;;;33.15;6.22;;;2.90;85.00;;;;;;5100877;28;20036;-71
2022/01/06 08:23:18;;;;;;;24.20;4.38;;;2.90;84.80;;;;;;5120560;27;20023;-71
2022/01/06 08:25:43;;;;;;;16.08;2.88;;;3.00;84.80;;;;;;5122355;27;20643;-71
2022/01/06 08:28:09;;;;;;;15.68;3.20;;;3.00;85.00;;;;;;5128367;27;20391;-72
2022/01/06 08:30:35;;;;;;;25.85;4.10;;;3.00;85.10;;;;;;5122638;27;20047;-72
2022/01/06 08:33:01;;;;;;;13.20;2.78;;;3.10;85.10;;;;;;5113162;27;20059;-70
2022/01/06 08:35:27;;;;;;;19.70;3.50;;;3.10;85.00;;;;;;5116240;27;20096;-71
2022/01/06 08:37:53;;;;;;;16.45;3.33;;;3.10;85.10;;;;;;5104820;27;20043;-72
2022/01/06 08:40:19;;;;;;;16.55;2.97;;;3.10;85.30;;;;;;5126591;27;20042;-71
2022/01/06 08:42:48;;;;;;;16.92;2.83;;;3.00;85.20;;;;;;5131471;27;20488;-71
2022/01/06 08:45:16;;;;;;;15.50;3.33;;;3.10;85.20;;;;;;5096391;27;20117;-71
2022/01/06 08:47:43;;;;;;;26.83;4.55;;;3.10;85.10;;;;;;5107822;27;20050;-72
2022/01/06 08:50:09;;;;;;;19.00;3.47;;;3.20;85.00;;;;;;5123470;27;20054;-72
2022/01/06 08:52:37;;;;;;;17.40;3.15;;;3.10;85.00;;;;;;5130590;27;20051;-71
2022/01/06 08:55:04;;;;;;;24.45;5.47;;;3.20;85.00;;;;;;5130699;27;20456;-71
2022/01/06 08:57:30;;;;;;;18.52;3.25;;;3.20;85.00;;;;;;5090338;27;20086;-72
2022/01/06 08:59:56;;;;;;;25.10;3.60;;;3.30;85.10;;;;;;5118873;27;20097;-71
2022/01/06 09:02:21;;;;;;;18.45;3.92;;;3.30;85.20;;;;;;5112274;27;20054;-71
2022/01/06 09:04:47;;;;;;;16.77;5.00;;;3.30;85.30;;;;;;5122481;27;20423;-72
2022/01/06 09:07:13;;;;;;;24.20;6.75;;;3.40;85.30;;;;;;5127982;27;20118;-72
2022/01/06 09:09:41;;;;;;;20.85;5.00;;;3.30;85.60;;;;;;5126314;27;20047;-72
2022/01/06 09:12:08;;;;;;;23.65;6.20;;;3.40;85.70;;;;;;5112381;27;20130;-72
2022/01/06 09:14:34;;;;;;;33.55;6.75;;;3.40;85.70;;;;;;5130655;27;20047;-72
2022/01/06 09:17:00;;;;;;;20.20;4.93;;;3.40;85.90;;;;;;5086644;27;20062;-72
2022/01/06 09:19:26;;;;;;;27.77;4.60;;;3.50;85.80;;;;;;5108738;27;20054;-73
2022/01/06 09:21:52;;;;;;;22.15;4.47;;;3.60;85.90;;;;;;5130219;27;20039;-72
2022/01/06 09:24:18;;;;;;;23.42;5.47;;;3.60;86.00;;;;;;5128738;27;20046;-72
2022/01/06 09:26:44;;;;;;;17.42;4.38;;;3.70;86.00;;;;;;5125330;27;20046;-73
2022/01/06 09:29:13;;;;;;;18.45;4.10;;;3.70;86.00;;;;;;5114798;27;20669;-72
2022/01/06 09:31:41;;;;;;;37.55;6.00;;;3.70;85.90;;;;;;5123240;27;20046;-72
2022/01/06 09:34:08;;;;;;;13.60;4.03;;;3.80;86.20;;;;;;5115329;27;20288;-72
2022/01/06 09:36:34;;;;;;;23.80;4.85;;;3.80;86.10;;;;;;5127072;27;20055;-72
2022/01/06 09:39:01;;;;;;;27.63;4.13;;;3.90;86.10;;;;;;5085900;27;20043;-72
2022/01/06 09:41:27;;;;;;;25.50;3.92;;;3.90;86.30;;;;;;5098487;27;20044;-72
2022/01/06 09:43:54;;;;;;;24.33;4.35;;;3.90;86.20;;;;;;5114981;27;20039;-72
2022/01/06 09:46:20;;;;;;;21.05;4.75;;;4.00;86.10;;;;;;5126266;27;20048;-72
2022/01/06 09:48:47;;;;;;;14.88;3.33;;;4.00;86.20;;;;;;5111319;27;20047;-72
2022/01/06 09:51:13;;;;;;;19.58;6.03;;;4.10;86.10;;;;;;5100143;27;20466;-72
2022/01/06 09:53:39;;;;;;;21.85;5.00;;;4.10;86.20;;;;;;5099483;27;20046;-72
2022/01/06 09:56:06;;;;;;;26.27;3.65;;;4.20;86.60;;;;;;5116245;27;20407;-71
2022/01/06 09:58:32;;;;;;;16.42;3.28;;;4.20;86.40;;;;;;5125955;27;20467;-72
2022/01/06 10:00:58;;;;;;;13.27;2.75;;;4.20;86.40;;;;;;5083962;27;20075;-71
2022/01/06 10:03:56;;;;;;;19.27;3.80;;;4.20;86.20;;;;;;5093316;28;20131;-72
2022/01/06 10:06:24;;;;;;;19.23;4.32;;;4.30;86.00;;;;;;5050266;28;20058;-72
2022/01/06 10:08:59;;;;;;;9.70;2.28;;;4.30;86.30;;;;;;5088382;28;20043;-72
2022/01/06 10:11:31;;;;;;;16.00;2.60;;;4.40;86.20;;;;;;5087547;28;20043;-71
2022/01/06 10:14:08;;;;;;;28.83;3.10;;;4.40;86.10;;;;;;5081474;28;20651;-72
2022/01/06 10:16:37;;;;;;;13.88;4.05;;;4.40;86.10;;;;;;5070606;28;20067;-70
2022/01/06 10:19:10;;;;;;;20.77;3.05;;;4.40;86.10;;;;;;5076644;28;20046;-72
2022/01/06 10:21:40;;;;;;;18.42;3.55;;;4.40;86.30;;;;;;5074660;28;20087;-73
2022/01/06 10:24:09;;;;;;;19.75;2.92;;;4.50;86.20;;;;;;5075670;28;20088;-72
2022/01/06 10:26:35;;;;;;;22.63;5.35;;;4.50;86.30;;;;;;5060867;28;20087;-73
2022/01/06 10:29:06;;;;;;;18.33;3.17;;;4.60;86.20;;;;;;5077815;28;20044;-73
2022/01/06 10:31:31;;;;;;;21.00;4.05;;;4.60;86.20;;;;;;5085055;28;20121;-73
2022/01/06 10:33:57;;;;;;;15.07;2.72;;;4.70;86.30;;;;;;5083200;28;20544;-73
2022/01/06 10:36:28;;;;;;;10.10;2.45;;;4.80;86.30;;;;;;5087965;28;20040;-72
2022/01/06 10:38:59;;;;;;;17.25;3.50;;;4.90;86.20;;;;;;5087240;28;20044;-72
2022/01/06 10:41:27;;;;;;;16.88;2.60;;;4.90;86.10;;;;;;5091141;28;20129;-72
2022/01/06 10:43:58;;;;;;;14.32;2.92;;;4.90;86.10;;;;;;5084879;28;20058;-72
2022/01/06 10:46:42;;;;;;;19.60;4.45;;;5.00;85.90;;;;;;5080913;28;20119;-72
2022/01/06 10:49:10;;;;;;;16.30;2.47;;;5.10;85.80;;;;;;5092577;28;20128;-72
2022/01/06 10:51:39;;;;;;;28.25;5.18;;;5.00;85.70;;;;;;5077992;28;20050;-73
2022/01/06 10:54:09;;;;;;;13.00;2.70;;;5.10;85.60;;;;;;5087810;28;20036;-72
2022/01/06 10:56:35;;;;;;;19.92;3.47;;;5.00;85.80;;;;;;5082322;28;20045;-72
2022/01/06 10:59:00;;;;;;;18.95;3.22;;;5.10;85.70;;;;;;5086575;28;20118;-72
2022/01/06 11:01:31;;;;;;;17.08;3.47;;;5.10;85.10;;;;;;5077290;28;20120;-72
2022/01/06 11:03:56;;;;;;;20.40;3.67;;;5.00;84.80;;;;;;5092717;28;20044;-72
2022/01/06 11:06:22;;;;;;;15.13;2.13;;;5.10;84.30;;;;;;5124241;27;20054;-72
2022/01/06 11:08:49;;;;;;;10.45;2.25;;;5.10;83.80;;;;;;5126834;27;20037;-72
2022/01/06 11:11:28;;;;;;;13.82;2.13;;;5.20;83.80;;;;;;5123168;27;20059;-73
2022/01/06 11:13:54;;;;;;;9.80;2.17;;;5.30;84.00;;;;;;5128456;27;20043;-72
2022/01/06 11:16:20;;;;;;;12.52;2.83;;;5.30;84.10;;;;;;5098151;28;20096;-72
2022/01/06 11:18:57;;;;;;;15.45;4.35;;;5.50;84.20;;;;;;5129835;27;20050;-72
2022/01/06 11:21:35;;;;;;;11.98;2.47;;;5.50;84.20;;;;;;5113443;27;20047;-72
2022/01/06 11:24:13;;;;;;;14.73;2.53;;;5.60;84.30;;;;;;5112675;27;20088;-71
2022/01/06 11:26:38;;;;;;;15.25;1.90;;;5.50;83.70;;;;;;5118379;27;20046;-72
2022/01/06 11:29:04;;;;;;;14.18;2.63;;;5.50;84.10;;;;;;5132133;27;20031;-72
2022/01/06 11:31:40;;;;;;;18.45;2.97;;;5.50;84.10;;;;;;5127394;27;20543;-72
2022/01/06 11:34:17;;;;;;;11.02;2.00;;;5.50;84.30;;;;;;5126837;27;20050;-70
2022/01/06 11:36:45;;;;;;;9.30;2.28;;;5.50;84.30;;;;;;5112316;27;20104;-71
2022/01/06 11:39:25;;;;;;;13.10;1.90;;;5.40;84.50;;;;;;5128825;27;20122;-71
2022/01/06 11:41:52;;;;;;;13.30;3.05;;;5.50;84.60;;;;;;5125844;27;20093;-71
2022/01/06 11:44:24;;;;;;;9.40;1.75;;;5.50;84.60;;;;;;5090065;27;20043;-71
2022/01/06 11:46:51;;;;;;;;;;;5.40;84.60;;;;;;5121898;27;20495;-70
2022/01/06 11:49:32;;;;;;;12.48;3.17;;;5.40;84.50;;;;;;5129625;27;19994;-70
2022/01/06 11:52:09;;;;;;;12.07;1.92;;;5.40;84.90;;;;;;5128282;27;20153;-70
2022/01/06 11:54:51;;;;;;;13.25;2.25;;;5.40;84.90;;;;;;5129214;27;20452;-70
2022/01/06 11:57:35;;;;;;;9.32;2.08;;;5.50;84.80;;;;;;5125948;27;20043;-70
2022/01/06 12:00:17;;;;;;;8.35;2.10;;;5.50;84.80;;;;;;5116973;27;20175;-70
2022/01/06 12:02:45;;;;;;;9.80;2.45;;;5.50;84.80;;;;;;5123099;27;20514;-71
2022/01/06 12:05:11;;;;;;;15.48;4.07;;;5.40;84.70;;;;;;5111858;28;20056;-70
2022/01/06 12:07:51;;;;;;;12.27;2.28;;;5.50;84.80;;;;;;5114559;27;20076;-70
2022/01/06 12:10:17;;;;;;;24.23;4.15;;;5.60;84.80;;;;;;5131053;27;20119;-70
2022/01/06 12:12:43;;;;;;;8.55;1.85;;;5.60;84.90;;;;;;5132438;27;20551;-70
2022/01/06 12:15:14;;;;;;;13.95;2.30;;;5.60;84.90;;;;;;5131372;27;20100;-70
2022/01/06 12:17:52;;;;;;;10.75;2.78;;;5.70;84.80;;;;;;5107047;27;20087;-70
2022/01/06 12:20:24;;;;;;;10.93;2.72;;;5.80;84.80;;;;;;5126129;27;20046;-71
2022/01/06 12:22:50;;;;;;;18.45;3.22;;;5.90;84.40;;;;;;5130441;27;20492;-70
2022/01/06 12:25:16;;;;;;;15.48;2.38;;;6.00;84.00;;;;;;5112536;27;20038;-71
2022/01/06 12:27:52;;;;;;;13.25;2.03;;;6.00;83.70;;;;;;5108707;27;20043;-71
2022/01/06 12:30:20;;;;;;;12.43;1.75;;;6.10;83.50;;;;;;5111636;27;20077;-70
2022/01/06 12:33:00;;;;;;;11.18;2.60;;;6.10;83.10;;;;;;5110709;27;20066;-72
2022/01/06 12:35:56;;;;;;;13.63;2.60;;;6.20;82.60;;;;;;5104177;27;20115;-72
2022/01/06 12:38:31;;;;;;;12.98;3.15;;;6.10;81.20;;;;;;5084905;27;20485;-72
2022/01/06 12:40:58;;;;;;;17.67;3.60;;;6.20;82.10;;;;;;5105082;27;20050;-72
2022/01/06 12:43:29;;;;;;;12.68;2.97;;;6.10;81.30;;;;;;5108507;27;20039;-72
2022/01/06 12:46:03;;;;;;;9.50;1.87;;;6.20;81.10;;;;;;5112464;27;20381;-72
2022/01/06 12:48:31;;;;;;;12.70;2.72;;;6.20;81.30;;;;;;5112730;27;20051;-72
2022/01/06 12:50:57;;;;;;;11.55;1.85;;;6.20;81.30;;;;;;5112118;27;20407;-72
2022/01/06 12:53:25;;;;;;;10.65;1.55;;;6.30;81.50;;;;;;5112565;27;20043;-72
2022/01/06 12:55:51;;;;;;;10.25;1.65;;;6.30;80.80;;;;;;5107283;27;20048;-72
2022/01/06 12:58:31;;;;;;;16.48;3.75;;;6.30;80.70;;;;;;5105696;27;20096;-71
2022/01/06 13:01:00;;;;;;;9.07;1.73;;;6.30;80.70;;;;;;5102030;27;20500;-72